sensor_id;sensor_type;location;lat;lon;timestamp;P1;durP1;ratioP1;P2;durP2;ratioP2
82417;SDS011;75985;53.734;10.260;2024-02-23T00:02:56;3.35;;;1.12;;
82417;SDS011;75985;53.734;10.260;2024-02-23T00:06:00;2.58;;;0.60;;
82417;SDS011;75985;53.734;10.260;2024-02-23T00:09:05;4.85;;;1.47;;
82417;SDS011;75985;53.734;10.260;2024-02-23T00:12:09;1.95;;;0.50;;
82417;SDS011;75985;53.734;10.260;2024-02-23T00:15:14;0.78;;;0.78;;
82417;SDS011;75985;53.734;10.260;2024-02-23T00:18:18;1.42;;;0.70;;
82417;SDS011;75985;53.734;10.260;2024-02-23T00:21:23;2.92;;;0.78;;
82417;SDS011;75985;53.734;10.260;2024-02-23T00:24:27;1.72;;;0.55;;
82417;SDS011;75985;53.734;10.260;2024-02-23T00:27:32;1.50;;;1.10;;
82417;SDS011;75985;53.734;10.260;2024-02-23T00:30:37;1.12;;;0.80;;
82417;SDS011;75985;53.734;10.260;2024-02-23T00:33:41;1.47;;;1.02;;
82417;SDS011;75985;53.734;10.260;2024-02-23T00:36:46;1.90;;;0.95;;
82417;SDS011;75985;53.734;10.260;2024-02-23T00:39:51;1.22;;;0.80;;
82417;SDS011;75985;53.734;10.260;2024-02-23T00:42:55;1.50;;;1.00;;
82417;SDS011;75985;53.734;10.260;2024-02-23T00:46:02;3.42;;;1.02;;
82417;SDS011;75985;53.734;10.260;2024-02-23T00:49:07;1.12;;;1.00;;
82417;SDS011;75985;53.734;10.260;2024-02-23T00:52:11;1.77;;;0.78;;
82417;SDS011;75985;53.734;10.260;2024-02-23T00:55:16;2.08;;;0.85;;
82417;SDS011;75985;53.734;10.260;2024-02-23T00:58:20;0.60;;;0.60;;
82417;SDS011;75985;53.734;10.260;2024-02-23T01:01:25;1.32;;;1.22;;
82417;SDS011;75985;53.734;10.260;2024-02-23T01:04:30;0.50;;;0.50;;
82417;SDS011;75985;53.734;10.260;2024-02-23T01:07:35;1.32;;;0.62;;
82417;SDS011;75985;53.734;10.260;2024-02-23T01:10:40;0.35;;;0.35;;
82417;SDS011;75985;53.734;10.260;2024-02-23T01:13:44;0.75;;;0.30;;
82417;SDS011;75985;53.734;10.260;2024-02-23T01:16:49;1.22;;;0.40;;
82417;SDS011;75985;53.734;10.260;2024-02-23T01:19:53;1.22;;;0.37;;
82417;SDS011;75985;53.734;10.260;2024-02-23T01:22:58;0.40;;;0.40;;
82417;SDS011;75985;53.734;10.260;2024-02-23T01:26:02;0.57;;;0.40;;
82417;SDS011;75985;53.734;10.260;2024-02-23T01:29:07;0.95;;;0.45;;
82417;SDS011;75985;53.734;10.260;2024-02-23T01:32:11;0.40;;;0.40;;
82417;SDS011;75985;53.734;10.260;2024-02-23T01:35:16;0.85;;;0.35;;
82417;SDS011;75985;53.734;10.260;2024-02-23T01:38:20;1.82;;;0.40;;
82417;SDS011;75985;53.734;10.260;2024-02-23T01:41:26;0.62;;;0.50;;
82417;SDS011;75985;53.734;10.260;2024-02-23T01:44:30;0.40;;;0.40;;
82417;SDS011;75985;53.734;10.260;2024-02-23T01:47:35;0.40;;;0.30;;
82417;SDS011;75985;53.734;10.260;2024-02-23T01:50:40;0.20;;;0.20;;
82417;SDS011;75985;53.734;10.260;2024-02-23T01:53:46;1.02;;;0.30;;
82417;SDS011;75985;53.734;10.260;2024-02-23T01:56:51;0.40;;;0.40;;
82417;SDS011;75985;53.734;10.260;2024-02-23T01:59:56;0.75;;;0.47;;
82417;SDS011;75985;53.734;10.260;2024-02-23T02:03:00;0.80;;;0.60;;
82417;SDS011;75985;53.734;10.260;2024-02-23T02:06:06;0.40;;;0.40;;
82417;SDS011;75985;53.734;10.260;2024-02-23T02:09:11;0.40;;;0.40;;
82417;SDS011;75985;53.734;10.260;2024-02-23T02:12:25;0.40;;;0.40;;
82417;SDS011;75985;53.734;10.260;2024-02-23T02:15:31;0.20;;;0.20;;
82417;SDS011;75985;53.734;10.260;2024-02-23T02:18:36;0.45;;;0.10;;
82417;SDS011;75985;53.734;10.260;2024-02-23T02:21:41;0.40;;;0.20;;
82417;SDS011;75985;53.734;10.260;2024-02-23T02:24:46;0.50;;;0.50;;
82417;SDS011;75985;53.734;10.260;2024-02-23T02:27:50;0.85;;;0.50;;
82417;SDS011;75985;53.734;10.260;2024-02-23T02:30:55;0.23;;;0.23;;
82417;SDS011;75985;53.734;10.260;2024-02-23T02:34:00;0.37;;;0.37;;
82417;SDS011;75985;53.734;10.260;2024-02-23T02:37:04;0.85;;;0.85;;
82417;SDS011;75985;53.734;10.260;2024-02-23T02:40:09;0.62;;;0.40;;
82417;SDS011;75985;53.734;10.260;2024-02-23T02:43:13;0.28;;;0.28;;
82417;SDS011;75985;53.734;10.260;2024-02-23T02:46:18;0.40;;;0.40;;
82417;SDS011;75985;53.734;10.260;2024-02-23T02:49:23;0.28;;;0.20;;
82417;SDS011;75985;53.734;10.260;2024-02-23T02:52:27;0.20;;;0.20;;
82417;SDS011;75985;53.734;10.260;2024-02-23T02:55:32;0.13;;;0.13;;
82417;SDS011;75985;53.734;10.260;2024-02-23T02:58:36;0.30;;;0.30;;
82417;SDS011;75985;53.734;10.260;2024-02-23T03:01:41;0.40;;;0.40;;
82417;SDS011;75985;53.734;10.260;2024-02-23T03:04:48;0.30;;;0.30;;
82417;SDS011;75985;53.734;10.260;2024-02-23T03:07:53;0.33;;;0.30;;
82417;SDS011;75985;53.734;10.260;2024-02-23T03:10:58;0.42;;;0.30;;
82417;SDS011;75985;53.734;10.260;2024-02-23T03:14:02;0.78;;;0.40;;
82417;SDS011;75985;53.734;10.260;2024-02-23T03:17:07;0.30;;;0.30;;
82417;SDS011;75985;53.734;10.260;2024-02-23T03:20:15;0.25;;;0.25;;
82417;SDS011;75985;53.734;10.260;2024-02-23T03:23:20;0.75;;;0.40;;
82417;SDS011;75985;53.734;10.260;2024-02-23T03:26:24;0.40;;;0.30;;
82417;SDS011;75985;53.734;10.260;2024-02-23T03:29:29;0.45;;;0.35;;
82417;SDS011;75985;53.734;10.260;2024-02-23T03:32:33;0.60;;;0.40;;
82417;SDS011;75985;53.734;10.260;2024-02-23T03:35:41;0.53;;;0.40;;
82417;SDS011;75985;53.734;10.260;2024-02-23T03:38:46;1.12;;;0.50;;
82417;SDS011;75985;53.734;10.260;2024-02-23T03:41:51;0.50;;;0.50;;
82417;SDS011;75985;53.734;10.260;2024-02-23T03:44:56;2.08;;;0.50;;
82417;SDS011;75985;53.734;10.260;2024-02-23T03:48:00;0.30;;;0.30;;
82417;SDS011;75985;53.734;10.260;2024-02-23T03:51:08;1.20;;;0.55;;
82417;SDS011;75985;53.734;10.260;2024-02-23T03:54:13;0.40;;;0.30;;
82417;SDS011;75985;53.734;10.260;2024-02-23T03:57:17;1.15;;;0.47;;
82417;SDS011;75985;53.734;10.260;2024-02-23T04:00:21;1.45;;;0.45;;
82417;SDS011;75985;53.734;10.260;2024-02-23T04:03:26;2.58;;;0.60;;
82417;SDS011;75985;53.734;10.260;2024-02-23T04:06:31;2.75;;;0.60;;
82417;SDS011;75985;53.734;10.260;2024-02-23T04:09:37;0.75;;;0.70;;
82417;SDS011;75985;53.734;10.260;2024-02-23T04:12:42;0.50;;;0.50;;
82417;SDS011;75985;53.734;10.260;2024-02-23T04:15:46;1.05;;;0.57;;
82417;SDS011;75985;53.734;10.260;2024-02-23T04:18:52;0.68;;;0.28;;
82417;SDS011;75985;53.734;10.260;2024-02-23T04:21:57;1.90;;;0.60;;
82417;SDS011;75985;53.734;10.260;2024-02-23T04:25:02;1.02;;;0.50;;
82417;SDS011;75985;53.734;10.260;2024-02-23T04:28:07;1.70;;;0.60;;
82417;SDS011;75985;53.734;10.260;2024-02-23T04:31:12;2.85;;;0.60;;
82417;SDS011;75985;53.734;10.260;2024-02-23T04:34:16;2.20;;;0.50;;
82417;SDS011;75985;53.734;10.260;2024-02-23T04:37:21;2.08;;;1.07;;
82417;SDS011;75985;53.734;10.260;2024-02-23T04:40:25;0.80;;;0.80;;
82417;SDS011;75985;53.734;10.260;2024-02-23T04:43:30;2.25;;;0.80;;
82417;SDS011;75985;53.734;10.260;2024-02-23T04:46:34;2.30;;;0.95;;
82417;SDS011;75985;53.734;10.260;2024-02-23T04:49:39;1.05;;;0.65;;
82417;SDS011;75985;53.734;10.260;2024-02-23T04:52:43;1.57;;;0.80;;
82417;SDS011;75985;53.734;10.260;2024-02-23T04:55:48;2.25;;;0.80;;
82417;SDS011;75985;53.734;10.260;2024-02-23T04:58:52;2.10;;;0.75;;
82417;SDS011;75985;53.734;10.260;2024-02-23T05:01:57;3.35;;;0.90;;
82417;SDS011;75985;53.734;10.260;2024-02-23T05:05:02;3.22;;;1.27;;
82417;SDS011;75985;53.734;10.260;2024-02-23T05:08:07;2.92;;;0.90;;
82417;SDS011;75985;53.734;10.260;2024-02-23T05:11:14;4.22;;;1.35;;
82417;SDS011;75985;53.734;10.260;2024-02-23T05:14:19;2.17;;;0.95;;
82417;SDS011;75985;53.734;10.260;2024-02-23T05:17:23;1.20;;;0.90;;
82417;SDS011;75985;53.734;10.260;2024-02-23T05:20:28;3.55;;;1.00;;
82417;SDS011;75985;53.734;10.260;2024-02-23T05:23:32;1.60;;;1.15;;
82417;SDS011;75985;53.734;10.260;2024-02-23T05:26:37;4.50;;;1.60;;
82417;SDS011;75985;53.734;10.260;2024-02-23T05:29:41;1.92;;;1.17;;
82417;SDS011;75985;53.734;10.260;2024-02-23T05:32:45;3.95;;;1.70;;
82417;SDS011;75985;53.734;10.260;2024-02-23T05:35:51;6.03;;;1.60;;
82417;SDS011;75985;53.734;10.260;2024-02-23T05:38:55;4.97;;;1.60;;
82417;SDS011;75985;53.734;10.260;2024-02-23T05:42:00;2.92;;;1.75;;
82417;SDS011;75985;53.734;10.260;2024-02-23T05:45:05;6.55;;;1.35;;
82417;SDS011;75985;53.734;10.260;2024-02-23T05:48:14;2.58;;;1.57;;
82417;SDS011;75985;53.734;10.260;2024-02-23T05:51:18;3.72;;;1.70;;
82417;SDS011;75985;53.734;10.260;2024-02-23T05:54:22;4.50;;;1.87;;
82417;SDS011;75985;53.734;10.260;2024-02-23T05:57:27;1.92;;;1.50;;
82417;SDS011;75985;53.734;10.260;2024-02-23T06:00:31;3.70;;;1.40;;
82417;SDS011;75985;53.734;10.260;2024-02-23T06:03:36;5.15;;;1.80;;
82417;SDS011;75985;53.734;10.260;2024-02-23T06:06:41;6.22;;;1.45;;
82417;SDS011;75985;53.734;10.260;2024-02-23T06:09:46;4.62;;;1.52;;
82417;SDS011;75985;53.734;10.260;2024-02-23T06:12:50;4.33;;;1.30;;
82417;SDS011;75985;53.734;10.260;2024-02-23T06:15:55;4.50;;;1.55;;
82417;SDS011;75985;53.734;10.260;2024-02-23T06:18:59;3.27;;;1.32;;
82417;SDS011;75985;53.734;10.260;2024-02-23T06:22:05;5.25;;;1.40;;
82417;SDS011;75985;53.734;10.260;2024-02-23T06:25:12;3.37;;;1.35;;
82417;SDS011;75985;53.734;10.260;2024-02-23T06:28:16;2.87;;;1.25;;
82417;SDS011;75985;53.734;10.260;2024-02-23T06:31:20;6.37;;;1.72;;
82417;SDS011;75985;53.734;10.260;2024-02-23T06:34:25;3.25;;;1.72;;
82417;SDS011;75985;53.734;10.260;2024-02-23T06:37:29;4.03;;;1.30;;
82417;SDS011;75985;53.734;10.260;2024-02-23T06:40:34;4.67;;;1.32;;
82417;SDS011;75985;53.734;10.260;2024-02-23T06:43:39;3.72;;;1.40;;
82417;SDS011;75985;53.734;10.260;2024-02-23T06:46:43;1.85;;;1.42;;
82417;SDS011;75985;53.734;10.260;2024-02-23T06:49:48;1.75;;;1.35;;
82417;SDS011;75985;53.734;10.260;2024-02-23T06:52:52;1.50;;;1.10;;
82417;SDS011;75985;53.734;10.260;2024-02-23T06:55:57;2.10;;;1.22;;
82417;SDS011;75985;53.734;10.260;2024-02-23T06:59:02;4.62;;;1.90;;
82417;SDS011;75985;53.734;10.260;2024-02-23T07:02:06;3.40;;;1.95;;
82417;SDS011;75985;53.734;10.260;2024-02-23T07:05:11;4.53;;;1.65;;
82417;SDS011;75985;53.734;10.260;2024-02-23T07:08:17;2.10;;;1.20;;
82417;SDS011;75985;53.734;10.260;2024-02-23T07:11:22;3.83;;;1.87;;
82417;SDS011;75985;53.734;10.260;2024-02-23T07:14:26;3.15;;;1.80;;
82417;SDS011;75985;53.734;10.260;2024-02-23T07:17:31;4.28;;;1.40;;
82417;SDS011;75985;53.734;10.260;2024-02-23T07:20:36;4.42;;;1.60;;
82417;SDS011;75985;53.734;10.260;2024-02-23T07:23:40;4.47;;;1.90;;
82417;SDS011;75985;53.734;10.260;2024-02-23T07:26:45;1.95;;;1.30;;
82417;SDS011;75985;53.734;10.260;2024-02-23T07:29:49;2.17;;;1.42;;
82417;SDS011;75985;53.734;10.260;2024-02-23T07:32:54;1.72;;;1.50;;
82417;SDS011;75985;53.734;10.260;2024-02-23T07:35:58;3.45;;;2.17;;
82417;SDS011;75985;53.734;10.260;2024-02-23T07:39:02;5.83;;;1.60;;
82417;SDS011;75985;53.734;10.260;2024-02-23T07:42:07;2.70;;;1.47;;
82417;SDS011;75985;53.734;10.260;2024-02-23T07:45:13;4.03;;;1.82;;
82417;SDS011;75985;53.734;10.260;2024-02-23T07:48:17;4.42;;;1.60;;
82417;SDS011;75985;53.734;10.260;2024-02-23T07:51:22;2.60;;;1.70;;
82417;SDS011;75985;53.734;10.260;2024-02-23T07:54:26;4.78;;;1.80;;
82417;SDS011;75985;53.734;10.260;2024-02-23T07:57:31;5.20;;;2.02;;
82417;SDS011;75985;53.734;10.260;2024-02-23T08:00:37;4.10;;;1.50;;
82417;SDS011;75985;53.734;10.260;2024-02-23T08:03:41;3.30;;;1.90;;
82417;SDS011;75985;53.734;10.260;2024-02-23T08:06:46;1.67;;;1.52;;
82417;SDS011;75985;53.734;10.260;2024-02-23T08:09:51;4.33;;;1.90;;
82417;SDS011;75985;53.734;10.260;2024-02-23T08:12:55;2.37;;;2.15;;
82417;SDS011;75985;53.734;10.260;2024-02-23T08:16:00;6.12;;;2.17;;
82417;SDS011;75985;53.734;10.260;2024-02-23T08:19:06;9.05;;;2.20;;
82417;SDS011;75985;53.734;10.260;2024-02-23T08:22:10;5.00;;;1.72;;
82417;SDS011;75985;53.734;10.260;2024-02-23T08:25:15;6.50;;;1.80;;
82417;SDS011;75985;53.734;10.260;2024-02-23T08:28:20;4.28;;;1.85;;
82417;SDS011;75985;53.734;10.260;2024-02-23T08:31:25;4.35;;;2.20;;
82417;SDS011;75985;53.734;10.260;2024-02-23T08:34:29;3.65;;;1.95;;
82417;SDS011;75985;53.734;10.260;2024-02-23T08:37:34;2.35;;;1.32;;
82417;SDS011;75985;53.734;10.260;2024-02-23T08:40:38;2.15;;;1.42;;
82417;SDS011;75985;53.734;10.260;2024-02-23T08:43:43;4.65;;;1.90;;
82417;SDS011;75985;53.734;10.260;2024-02-23T08:46:47;6.12;;;1.82;;
82417;SDS011;75985;53.734;10.260;2024-02-23T08:49:52;4.62;;;1.75;;
82417;SDS011;75985;53.734;10.260;2024-02-23T08:52:56;5.55;;;1.67;;
82417;SDS011;75985;53.734;10.260;2024-02-23T08:56:01;4.15;;;1.67;;
82417;SDS011;75985;53.734;10.260;2024-02-23T08:59:05;4.60;;;1.70;;
82417;SDS011;75985;53.734;10.260;2024-02-23T09:02:10;4.03;;;1.27;;
82417;SDS011;75985;53.734;10.260;2024-02-23T09:05:14;6.25;;;1.80;;
82417;SDS011;75985;53.734;10.260;2024-02-23T09:08:19;1.92;;;1.30;;
82417;SDS011;75985;53.734;10.260;2024-02-23T09:11:24;2.45;;;1.27;;
82417;SDS011;75985;53.734;10.260;2024-02-23T09:14:28;7.28;;;2.08;;
82417;SDS011;75985;53.734;10.260;2024-02-23T09:17:33;11.12;;;1.70;;
82417;SDS011;75985;53.734;10.260;2024-02-23T09:20:37;6.90;;;1.67;;
82417;SDS011;75985;53.734;10.260;2024-02-23T09:23:42;4.28;;;1.70;;
82417;SDS011;75985;53.734;10.260;2024-02-23T09:26:46;4.65;;;1.32;;
82417;SDS011;75985;53.734;10.260;2024-02-23T09:29:51;4.80;;;1.57;;
82417;SDS011;75985;53.734;10.260;2024-02-23T09:32:56;4.72;;;1.40;;
82417;SDS011;75985;53.734;10.260;2024-02-23T09:36:00;8.78;;;2.25;;
82417;SDS011;75985;53.734;10.260;2024-02-23T09:39:05;16.07;;;3.42;;
82417;SDS011;75985;53.734;10.260;2024-02-23T09:42:10;7.30;;;1.57;;
82417;SDS011;75985;53.734;10.260;2024-02-23T09:45:14;3.33;;;1.00;;
82417;SDS011;75985;53.734;10.260;2024-02-23T09:48:20;5.40;;;1.20;;
82417;SDS011;75985;53.734;10.260;2024-02-23T09:51:25;3.62;;;1.25;;
82417;SDS011;75985;53.734;10.260;2024-02-23T09:54:30;4.35;;;1.20;;
82417;SDS011;75985;53.734;10.260;2024-02-23T09:57:35;1.10;;;0.90;;
82417;SDS011;75985;53.734;10.260;2024-02-23T10:00:40;3.10;;;1.10;;
82417;SDS011;75985;53.734;10.260;2024-02-23T10:03:45;2.22;;;1.22;;
82417;SDS011;75985;53.734;10.260;2024-02-23T10:06:50;3.27;;;1.27;;
82417;SDS011;75985;53.734;10.260;2024-02-23T10:09:54;5.65;;;1.05;;
82417;SDS011;75985;53.734;10.260;2024-02-23T10:13:01;4.25;;;1.22;;
82417;SDS011;75985;53.734;10.260;2024-02-23T10:16:09;4.83;;;1.10;;
82417;SDS011;75985;53.734;10.260;2024-02-23T10:19:13;5.45;;;1.57;;
82417;SDS011;75985;53.734;10.260;2024-02-23T10:22:18;6.50;;;1.27;;
82417;SDS011;75985;53.734;10.260;2024-02-23T10:25:24;8.40;;;1.50;;
82417;SDS011;75985;53.734;10.260;2024-02-23T10:28:28;3.80;;;1.30;;
82417;SDS011;75985;53.734;10.260;2024-02-23T10:31:34;5.28;;;1.32;;
82417;SDS011;75985;53.734;10.260;2024-02-23T10:34:40;5.15;;;1.32;;
82417;SDS011;75985;53.734;10.260;2024-02-23T10:37:50;6.53;;;1.20;;
82417;SDS011;75985;53.734;10.260;2024-02-23T10:40:56;3.98;;;1.72;;
82417;SDS011;75985;53.734;10.260;2024-02-23T10:44:01;5.15;;;1.10;;
82417;SDS011;75985;53.734;10.260;2024-02-23T10:47:07;5.35;;;1.52;;
82417;SDS011;75985;53.734;10.260;2024-02-23T10:50:12;5.22;;;1.27;;
82417;SDS011;75985;53.734;10.260;2024-02-23T10:53:18;6.00;;;1.32;;
82417;SDS011;75985;53.734;10.260;2024-02-23T10:56:23;7.25;;;1.42;;
82417;SDS011;75985;53.734;10.260;2024-02-23T10:59:29;3.58;;;1.17;;
82417;SDS011;75985;53.734;10.260;2024-02-23T11:02:34;4.78;;;1.57;;
82417;SDS011;75985;53.734;10.260;2024-02-23T11:05:42;7.05;;;1.92;;
82417;SDS011;75985;53.734;10.260;2024-02-23T11:08:47;2.45;;;1.32;;
82417;SDS011;75985;53.734;10.260;2024-02-23T11:11:54;8.78;;;2.10;;
82417;SDS011;75985;53.734;10.260;2024-02-23T11:15:00;5.47;;;1.17;;
82417;SDS011;75985;53.734;10.260;2024-02-23T11:18:21;6.05;;;1.25;;
82417;SDS011;75985;53.734;10.260;2024-02-23T11:21:26;4.42;;;1.02;;
82417;SDS011;75985;53.734;10.260;2024-02-23T11:24:34;6.10;;;1.20;;
82417;SDS011;75985;53.734;10.260;2024-02-23T11:27:38;5.20;;;1.47;;
82417;SDS011;75985;53.734;10.260;2024-02-23T11:30:45;3.83;;;1.15;;
82417;SDS011;75985;53.734;10.260;2024-02-23T11:33:54;6.28;;;1.70;;
82417;SDS011;75985;53.734;10.260;2024-02-23T11:37:07;3.85;;;1.10;;
82417;SDS011;75985;53.734;10.260;2024-02-23T11:43:17;4.33;;;1.20;;
82417;SDS011;75985;53.734;10.260;2024-02-23T11:46:23;4.87;;;1.00;;
82417;SDS011;75985;53.734;10.260;2024-02-23T11:49:28;4.35;;;0.90;;
82417;SDS011;75985;53.734;10.260;2024-02-23T11:52:34;4.08;;;1.40;;
82417;SDS011;75985;53.734;10.260;2024-02-23T11:55:40;4.97;;;1.42;;
82417;SDS011;75985;53.734;10.260;2024-02-23T11:58:45;6.25;;;1.07;;
82417;SDS011;75985;53.734;10.260;2024-02-23T12:01:50;3.02;;;1.07;;
82417;SDS011;75985;53.734;10.260;2024-02-23T12:04:55;5.03;;;1.22;;
82417;SDS011;75985;53.734;10.260;2024-02-23T12:07:59;1.70;;;1.00;;
82417;SDS011;75985;53.734;10.260;2024-02-23T12:11:04;3.12;;;1.20;;
82417;SDS011;75985;53.734;10.260;2024-02-23T12:14:11;2.15;;;1.32;;
82417;SDS011;75985;53.734;10.260;2024-02-23T12:17:15;2.05;;;0.90;;
82417;SDS011;75985;53.734;10.260;2024-02-23T12:20:20;3.47;;;1.02;;
82417;SDS011;75985;53.734;10.260;2024-02-23T12:23:26;3.35;;;1.22;;
82417;SDS011;75985;53.734;10.260;2024-02-23T12:26:30;6.05;;;1.45;;
82417;SDS011;75985;53.734;10.260;2024-02-23T12:29:34;2.85;;;0.88;;
82417;SDS011;75985;53.734;10.260;2024-02-23T12:32:39;2.67;;;1.10;;
82417;SDS011;75985;53.734;10.260;2024-02-23T12:35:44;5.78;;;1.52;;
82417;SDS011;75985;53.734;10.260;2024-02-23T12:38:49;2.33;;;1.10;;
82417;SDS011;75985;53.734;10.260;2024-02-23T12:41:53;1.57;;;0.80;;
82417;SDS011;75985;53.734;10.260;2024-02-23T12:44:59;3.25;;;1.12;;
82417;SDS011;75985;53.734;10.260;2024-02-23T12:48:04;4.50;;;0.85;;
82417;SDS011;75985;53.734;10.260;2024-02-23T12:51:09;3.72;;;0.98;;
82417;SDS011;75985;53.734;10.260;2024-02-23T12:54:13;2.12;;;1.00;;
82417;SDS011;75985;53.734;10.260;2024-02-23T12:57:19;4.05;;;1.00;;
82417;SDS011;75985;53.734;10.260;2024-02-23T13:00:23;1.02;;;0.70;;
82417;SDS011;75985;53.734;10.260;2024-02-23T13:03:28;1.82;;;1.17;;
82417;SDS011;75985;53.734;10.260;2024-02-23T13:06:33;2.70;;;0.72;;
82417;SDS011;75985;53.734;10.260;2024-02-23T13:09:37;0.70;;;0.70;;
82417;SDS011;75985;53.734;10.260;2024-02-23T13:12:42;0.65;;;0.60;;
82417;SDS011;75985;53.734;10.260;2024-02-23T13:15:47;1.92;;;0.95;;
82417;SDS011;75985;53.734;10.260;2024-02-23T13:18:52;1.85;;;0.98;;
82417;SDS011;75985;53.734;10.260;2024-02-23T13:21:57;1.65;;;0.70;;
82417;SDS011;75985;53.734;10.260;2024-02-23T13:25:03;2.70;;;0.90;;
82417;SDS011;75985;53.734;10.260;2024-02-23T13:28:08;2.40;;;0.93;;
82417;SDS011;75985;53.734;10.260;2024-02-23T13:31:13;1.15;;;0.80;;
82417;SDS011;75985;53.734;10.260;2024-02-23T13:34:18;3.62;;;0.82;;
82417;SDS011;75985;53.734;10.260;2024-02-23T13:37:23;2.52;;;0.72;;
82417;SDS011;75985;53.734;10.260;2024-02-23T13:40:29;1.10;;;0.70;;
82417;SDS011;75985;53.734;10.260;2024-02-23T13:43:35;1.15;;;0.90;;
82417;SDS011;75985;53.734;10.260;2024-02-23T13:46:41;1.95;;;0.90;;
82417;SDS011;75985;53.734;10.260;2024-02-23T13:49:45;1.32;;;1.00;;
82417;SDS011;75985;53.734;10.260;2024-02-23T13:52:49;1.85;;;0.75;;
82417;SDS011;75985;53.734;10.260;2024-02-23T13:55:54;2.83;;;1.22;;
82417;SDS011;75985;53.734;10.260;2024-02-23T13:58:59;2.50;;;0.90;;
82417;SDS011;75985;53.734;10.260;2024-02-23T14:02:03;1.95;;;0.60;;
82417;SDS011;75985;53.734;10.260;2024-02-23T14:05:08;1.50;;;0.80;;
82417;SDS011;75985;53.734;10.260;2024-02-23T14:08:12;2.35;;;0.88;;
82417;SDS011;75985;53.734;10.260;2024-02-23T14:11:17;1.60;;;0.60;;
82417;SDS011;75985;53.734;10.260;2024-02-23T14:14:22;2.02;;;0.70;;
82417;SDS011;75985;53.734;10.260;2024-02-23T14:17:26;3.22;;;0.70;;
82417;SDS011;75985;53.734;10.260;2024-02-23T14:20:31;3.17;;;0.90;;
82417;SDS011;75985;53.734;10.260;2024-02-23T14:23:35;2.20;;;0.85;;
82417;SDS011;75985;53.734;10.260;2024-02-23T14:26:40;2.67;;;0.75;;
82417;SDS011;75985;53.734;10.260;2024-02-23T14:29:45;0.75;;;0.60;;
82417;SDS011;75985;53.734;10.260;2024-02-23T14:32:50;3.92;;;1.00;;
82417;SDS011;75985;53.734;10.260;2024-02-23T14:35:55;2.17;;;0.80;;
82417;SDS011;75985;53.734;10.260;2024-02-23T14:38:59;2.15;;;0.82;;
82417;SDS011;75985;53.734;10.260;2024-02-23T14:42:03;2.58;;;0.75;;
82417;SDS011;75985;53.734;10.260;2024-02-23T14:45:10;1.12;;;0.72;;
82417;SDS011;75985;53.734;10.260;2024-02-23T14:48:15;2.50;;;1.22;;
82417;SDS011;75985;53.734;10.260;2024-02-23T14:51:20;2.33;;;0.80;;
82417;SDS011;75985;53.734;10.260;2024-02-23T14:54:24;1.67;;;0.80;;
82417;SDS011;75985;53.734;10.260;2024-02-23T14:57:29;1.17;;;0.70;;
82417;SDS011;75985;53.734;10.260;2024-02-23T15:00:33;3.30;;;0.75;;
82417;SDS011;75985;53.734;10.260;2024-02-23T15:03:38;3.92;;;1.05;;
82417;SDS011;75985;53.734;10.260;2024-02-23T15:06:42;1.25;;;0.60;;
82417;SDS011;75985;53.734;10.260;2024-02-23T15:09:47;2.20;;;1.12;;
82417;SDS011;75985;53.734;10.260;2024-02-23T15:12:51;0.82;;;0.57;;
82417;SDS011;75985;53.734;10.260;2024-02-23T15:15:55;1.37;;;0.65;;
82417;SDS011;75985;53.734;10.260;2024-02-23T15:19:00;0.93;;;0.62;;
82417;SDS011;75985;53.734;10.260;2024-02-23T15:22:04;1.62;;;0.70;;
82417;SDS011;75985;53.734;10.260;2024-02-23T15:25:11;1.67;;;0.70;;
82417;SDS011;75985;53.734;10.260;2024-02-23T15:28:15;0.98;;;0.80;;
82417;SDS011;75985;53.734;10.260;2024-02-23T15:31:22;1.90;;;1.07;;
82417;SDS011;75985;53.734;10.260;2024-02-23T15:34:26;2.30;;;1.17;;
82417;SDS011;75985;53.734;10.260;2024-02-23T15:37:31;2.52;;;1.15;;
82417;SDS011;75985;53.734;10.260;2024-02-23T15:40:36;2.15;;;1.20;;
82417;SDS011;75985;53.734;10.260;2024-02-23T15:43:40;2.83;;;0.95;;
82417;SDS011;75985;53.734;10.260;2024-02-23T15:46:44;2.05;;;0.95;;
82417;SDS011;75985;53.734;10.260;2024-02-23T15:49:49;1.50;;;0.93;;
82417;SDS011;75985;53.734;10.260;2024-02-23T15:52:54;1.72;;;1.00;;
82417;SDS011;75985;53.734;10.260;2024-02-23T15:55:59;2.10;;;0.90;;
82417;SDS011;75985;53.734;10.260;2024-02-23T15:59:03;4.30;;;1.37;;
82417;SDS011;75985;53.734;10.260;2024-02-23T16:02:11;2.02;;;1.10;;
82417;SDS011;75985;53.734;10.260;2024-02-23T16:05:16;2.58;;;1.10;;
82417;SDS011;75985;53.734;10.260;2024-02-23T16:08:37;1.57;;;1.10;;
82417;SDS011;75985;53.734;10.260;2024-02-23T16:11:46;1.87;;;0.90;;
82417;SDS011;75985;53.734;10.260;2024-02-23T16:14:50;1.20;;;0.90;;
82417;SDS011;75985;53.734;10.260;2024-02-23T16:17:55;2.10;;;0.90;;
82417;SDS011;75985;53.734;10.260;2024-02-23T16:21:00;1.35;;;0.70;;
82417;SDS011;75985;53.734;10.260;2024-02-23T16:24:05;0.70;;;0.70;;
82417;SDS011;75985;53.734;10.260;2024-02-23T16:27:10;0.75;;;0.65;;
82417;SDS011;75985;53.734;10.260;2024-02-23T16:30:14;0.72;;;0.70;;
82417;SDS011;75985;53.734;10.260;2024-02-23T16:33:19;0.75;;;0.50;;
82417;SDS011;75985;53.734;10.260;2024-02-23T16:36:23;1.47;;;0.70;;
82417;SDS011;75985;53.734;10.260;2024-02-23T16:39:27;2.55;;;1.10;;
82417;SDS011;75985;53.734;10.260;2024-02-23T16:42:32;3.37;;;1.12;;
82417;SDS011;75985;53.734;10.260;2024-02-23T16:45:36;2.85;;;1.00;;
82417;SDS011;75985;53.734;10.260;2024-02-23T16:48:41;1.25;;;0.80;;
82417;SDS011;75985;53.734;10.260;2024-02-23T16:51:46;2.10;;;0.98;;
82417;SDS011;75985;53.734;10.260;2024-02-23T16:54:50;1.52;;;0.60;;
82417;SDS011;75985;53.734;10.260;2024-02-23T16:57:55;1.07;;;0.70;;
82417;SDS011;75985;53.734;10.260;2024-02-23T17:01:00;2.17;;;0.90;;
82417;SDS011;75985;53.734;10.260;2024-02-23T17:04:07;1.05;;;0.70;;
82417;SDS011;75985;53.734;10.260;2024-02-23T17:07:11;2.00;;;0.60;;
82417;SDS011;75985;53.734;10.260;2024-02-23T17:10:16;1.67;;;0.90;;
82417;SDS011;75985;53.734;10.260;2024-02-23T17:13:21;1.15;;;1.00;;
82417;SDS011;75985;53.734;10.260;2024-02-23T17:16:27;4.55;;;1.17;;
82417;SDS011;75985;53.734;10.260;2024-02-23T17:19:32;2.80;;;1.00;;
82417;SDS011;75985;53.734;10.260;2024-02-23T17:22:37;2.17;;;1.07;;
82417;SDS011;75985;53.734;10.260;2024-02-23T17:25:41;1.17;;;0.90;;
82417;SDS011;75985;53.734;10.260;2024-02-23T17:28:47;1.55;;;0.95;;
82417;SDS011;75985;53.734;10.260;2024-02-23T17:31:51;3.52;;;0.75;;
82417;SDS011;75985;53.734;10.260;2024-02-23T17:34:56;1.90;;;0.93;;
82417;SDS011;75985;53.734;10.260;2024-02-23T17:38:00;2.52;;;1.15;;
82417;SDS011;75985;53.734;10.260;2024-02-23T17:41:05;6.33;;;3.15;;
82417;SDS011;75985;53.734;10.260;2024-02-23T17:44:10;4.17;;;1.30;;
82417;SDS011;75985;53.734;10.260;2024-02-23T17:47:14;1.57;;;0.95;;
82417;SDS011;75985;53.734;10.260;2024-02-23T17:50:19;3.65;;;1.10;;
82417;SDS011;75985;53.734;10.260;2024-02-23T17:53:23;1.77;;;0.93;;
82417;SDS011;75985;53.734;10.260;2024-02-23T17:56:28;2.83;;;1.30;;
82417;SDS011;75985;53.734;10.260;2024-02-23T17:59:33;1.50;;;1.00;;
82417;SDS011;75985;53.734;10.260;2024-02-23T18:02:37;1.07;;;0.98;;
82417;SDS011;75985;53.734;10.260;2024-02-23T18:05:42;1.22;;;0.80;;
82417;SDS011;75985;53.734;10.260;2024-02-23T18:08:46;0.80;;;0.80;;
82417;SDS011;75985;53.734;10.260;2024-02-23T18:11:51;1.12;;;0.90;;
82417;SDS011;75985;53.734;10.260;2024-02-23T18:14:55;1.40;;;0.78;;
82417;SDS011;75985;53.734;10.260;2024-02-23T18:18:00;1.92;;;1.12;;
82417;SDS011;75985;53.734;10.260;2024-02-23T18:21:04;1.32;;;0.80;;